Time;durP1;ratioP1;P1;durP2;ratioP2;P2;SDS_P1;SDS_P2;PMS_P1;PMS_P2;Temp;Humidity;BMP_temperature;BMP_pressure;BME280_temperature;BME280_humidity;BME280_pressure;Samples;Min_cycle;Max_cycle;Signal;HPM_P1;HPM_P2
2024/01/20 00:02:46;;;;;;;;;;;-4.90;99.90;;;;;;20872886;28;20011;-75
2024/01/20 00:12:47;;;;;;;;;;;-5.10;99.90;;;;;;20839274;28;20438;-75
2024/01/20 00:22:49;;;;;;;;;;;-5.20;99.90;;;;;;20831458;28;20062;-75
2024/01/20 00:32:50;;;;;;;;;;;-5.20;99.90;;;;;;20827731;28;20024;-75
2024/01/20 00:42:51;;;;;;;;;;;-5.20;99.90;;;;;;20833620;28;20009;-75
2024/01/20 00:52:51;;;;;;;;;;;-5.50;99.90;;;;;;20859064;28;19913;-75
2024/01/20 01:02:52;;;;;;;;;;;-5.30;99.90;;;;;;20838037;28;19996;-75
2024/01/20 01:12:53;;;;;;;;;;;-4.90;99.90;;;;;;20861231;28;19921;-76
2024/01/20 01:22:53;;;;;;;;;;;-4.90;99.90;;;;;;20836524;28;20128;-74
2024/01/20 01:32:54;;;;;;;;;;;-5.20;99.90;;;;;;20840019;28;19975;-76
2024/01/20 01:42:57;;;;;;;;;;;-5.30;99.90;;;;;;20843601;28;19967;-74
2024/01/20 01:53:00;;;;;;;;;;;-5.30;99.90;;;;;;20854097;28;20215;-75
2024/01/20 02:03:01;;;;;;;;;;;-5.00;99.90;;;;;;20851533;28;19917;-75
2024/01/20 02:13:01;;;;;;;;;;;-4.90;99.90;;;;;;20858241;28;20299;-76
2024/01/20 02:23:02;;;;;;;;;;;-4.80;99.90;;;;;;20862426;28;19970;-76
2024/01/20 02:33:03;;;;;;;;;;;-4.80;99.90;;;;;;20849459;28;19921;-76
2024/01/20 02:43:04;;;;;;;;;;;-5.00;99.90;;;;;;20834804;28;19917;-76
2024/01/20 02:53:04;;;;;;;;;;;-5.20;99.90;;;;;;20876842;28;19921;-76
2024/01/20 03:03:05;;;;;;;;;;;-5.20;99.90;;;;;;20892861;28;20371;-76
2024/01/20 03:13:05;;;;;;;;;;;-5.30;99.90;;;;;;20885216;28;19920;-76
2024/01/20 03:23:06;;;;;;;;;;;-5.30;99.90;;;;;;20871096;28;20011;-76
2024/01/20 03:33:07;;;;;;;;;;;-5.20;99.90;;;;;;20842339;28;19923;-76
2024/01/20 03:43:07;;;;;;;;;;;-5.30;99.90;;;;;;20836688;28;19917;-76
2024/01/20 03:53:08;;;;;;;;;;;-5.40;99.90;;;;;;20827303;28;20372;-76
2024/01/20 04:03:09;;;;;;;;;;;-5.50;99.90;;;;;;20831424;28;19917;-76
2024/01/20 04:13:09;;;;;;;;;;;-6.10;99.90;;;;;;20856073;28;19947;-76
2024/01/20 04:23:10;;;;;;;;;;;-6.00;99.90;;;;;;20826434;28;19924;-76
2024/01/20 04:33:11;;;;;;;;;;;-6.10;99.90;;;;;;20839541;28;19994;-75
2024/01/20 04:43:12;;;;;;;;;;;-6.40;99.90;;;;;;20847167;28;19956;-74
2024/01/20 04:53:13;;;;;;;;;;;-6.30;99.90;;;;;;20837171;28;19936;-75
2024/01/20 05:03:13;;;;;;;;;;;-6.20;99.90;;;;;;20832278;28;19917;-76
2024/01/20 05:13:14;;;;;;;;;;;-6.70;99.90;;;;;;20858757;28;20387;-76
2024/01/20 05:23:15;;;;;;;;;;;-6.80;99.90;;;;;;20850567;28;20015;-75
2024/01/20 05:33:15;;;;;;;;;;;-7.10;99.90;;;;;;20875163;28;19917;-75
2024/01/20 05:43:16;;;;;;;;;;;-6.90;99.90;;;;;;20854983;28;19923;-76
2024/01/20 05:53:18;;;;;;;;;;;-6.70;99.90;;;;;;20849460;28;20003;-75
2024/01/20 06:03:18;;;;;;;;;;;-6.40;99.90;;;;;;20847073;28;20407;-75
2024/01/20 06:13:19;;;;;;;;;;;-6.50;99.90;;;;;;20850850;28;19913;-76
2024/01/20 06:23:20;;;;;;;;;;;-6.80;99.90;;;;;;20834194;28;19917;-75
2024/01/20 06:33:20;;;;;;;;;;;-6.70;99.90;;;;;;20867248;28;19917;-76
2024/01/20 06:43:21;;;;;;;;;;;-6.70;99.90;;;;;;20846369;28;20355;-75
2024/01/20 06:53:22;;;;;;;;;;;-6.80;99.90;;;;;;20848804;28;19920;-75
2024/01/20 07:03:23;;;;;;;;;;;-6.80;99.90;;;;;;20858117;28;20294;-75
2024/01/20 07:13:23;;;;;;;;;;;-6.60;99.90;;;;;;20853211;28;19963;-75
2024/01/20 07:23:24;;;;;;;;;;;-6.30;99.90;;;;;;20841594;28;19916;-75
2024/01/20 07:33:24;;;;;;;;;;;-6.10;99.90;;;;;;20875292;28;19921;-75
2024/01/20 07:43:25;;;;;;;;;;;-5.60;99.90;;;;;;20860414;28;19940;-75
2024/01/20 07:53:27;;;;;;;;;;;-5.30;99.90;;;;;;20864286;28;19925;-75
2024/01/20 08:03:28;;;;;;;;;;;-4.70;99.90;;;;;;20829250;28;19924;-75
2024/01/20 08:13:29;;;;;;;;;;;-4.10;99.90;;;;;;20839304;28;20384;-76
2024/01/20 08:23:29;;;;;;;;;;;-4.20;99.90;;;;;;20831240;28;19939;-76
2024/01/20 08:33:31;;;;;;;;;;;-3.10;99.90;;;;;;20852409;28;19917;-77
2024/01/20 08:43:32;;;;;;;;;;;-2.80;99.90;;;;;;20865204;28;19952;-76
2024/01/20 08:53:35;;;;;;;;;;;-0.90;99.90;;;;;;20860247;28;19927;-76
2024/01/20 09:03:36;;;;;;;;;;;-2.00;99.90;;;;;;20859171;28;19925;-76
2024/01/20 09:13:37;;;;;;;;;;;-0.30;99.90;;;;;;20851679;28;19967;-77
2024/01/20 09:23:37;;;;;;;;;;;0.80;99.90;;;;;;20858337;28;20356;-76
2024/01/20 09:33:38;;;;;;;;;;;1.10;99.90;;;;;;20857094;28;19952;-74
2024/01/20 09:43:39;;;;;;;;;;;0.80;99.90;;;;;;20853226;28;19917;-75
2024/01/20 09:53:40;;;;;;;;;;;2.50;99.90;;;;;;20854267;28;19921;-76
2024/01/20 10:03:41;;;;;;;;;;;3.00;99.90;;;;;;20865080;28;20039;-76
2024/01/20 10:13:42;;;;;;;;;;;2.10;99.90;;;;;;20867387;28;19987;-76
2024/01/20 10:23:42;;;;;;;;;;;3.80;99.90;;;;;;20870224;28;19936;-77
2024/01/20 10:33:43;;;;;;;;;;;4.10;99.90;;;;;;20869260;28;19924;-76
2024/01/20 10:43:48;;;;;;;;;;;4.20;99.90;;;;;;20865475;28;20281;-77
2024/01/20 10:53:50;;;;;;;;;;;4.10;99.90;;;;;;20870426;28;21247;-78
2024/01/20 11:03:50;;;;;;;;;;;4.60;99.90;;;;;;20870957;28;20008;-78
2024/01/20 11:13:52;;;;;;;;;;;3.70;99.90;;;;;;20875713;28;19913;-78
2024/01/20 11:23:59;;;;;;;;;;;4.00;99.90;;;;;;20886638;28;19923;-78
2024/01/20 11:34:01;;;;;;;;;;;4.50;99.90;;;;;;20882604;28;19939;-77
2024/01/20 11:44:02;;;;;;;;;;;4.60;99.90;;;;;;20887421;28;20016;-78
2024/01/20 11:54:03;;;;;;;;;;;5.40;99.90;;;;;;20885037;28;19917;-78
2024/01/20 12:04:04;;;;;;;;;;;5.00;99.90;;;;;;20871037;28;20335;-77
2024/01/20 12:14:06;;;;;;;;;;;5.30;99.90;;;;;;20866651;28;19917;-78
2024/01/20 12:24:09;;;;;;;;;;;5.30;99.90;;;;;;20866163;28;20063;-77
2024/01/20 12:34:09;;;;;;;;;;;5.20;99.90;;;;;;20871946;28;19917;-78
2024/01/20 12:44:10;;;;;;;;;;;5.20;99.90;;;;;;20876185;28;19972;-79
2024/01/20 12:54:12;;;;;;;;;;;6.70;99.90;;;;;;20860827;28;19917;-78
2024/01/20 13:04:13;;;;;;;;;;;7.10;99.90;;;;;;20877055;28;19916;-79
2024/01/20 13:14:14;;;;;;;;;;;7.00;99.90;;;;;;20909740;28;19914;-78
2024/01/20 13:24:14;;;;;;;;;;;8.20;99.90;;;;;;20899229;28;19917;-78
2024/01/20 13:34:15;;;;;;;;;;;9.10;99.90;;;;;;20867715;28;19979;-78
2024/01/20 13:44:16;;;;;;;;;;;8.30;99.90;;;;;;20901522;28;19920;-79
2024/01/20 13:54:16;;;;;;;;;;;6.60;99.90;;;;;;20901848;28;19917;-79
2024/01/20 14:04:17;;;;;;;;;;;7.20;99.90;;;;;;20876130;28;20063;-79
2024/01/20 14:14:17;;;;;;;;;;;7.40;99.90;;;;;;20876319;28;20399;-78
2024/01/20 14:24:18;;;;;;;;;;;7.50;99.90;;;;;;20870416;28;20012;-78
2024/01/20 14:34:19;;;;;;;;;;;7.10;99.90;;;;;;20875726;28;20002;-78
2024/01/20 14:44:20;;;;;;;;;;;5.10;99.90;;;;;;20857397;28;19917;-79
2024/01/20 14:54:21;;;;;;;;;;;5.20;99.90;;;;;;20872512;28;19942;-79
2024/01/20 15:04:22;;;;;;;;;;;4.40;99.90;;;;;;20869572;28;19917;-79
2024/01/20 15:14:22;;;;;;;;;;;4.80;99.90;;;;;;20866208;28;20008;-79
2024/01/20 15:24:23;;;;;;;;;;;4.80;99.90;;;;;;20874718;28;19917;-79
2024/01/20 15:34:24;;;;;;;;;;;3.90;99.90;;;;;;20871378;28;19917;-78
2024/01/20 15:44:24;;;;;;;;;;;3.10;99.90;;;;;;20877981;28;19917;-78
2024/01/20 15:54:25;;;;;;;;;;;3.30;99.90;;;;;;20891229;28;20059;-81
2024/01/20 16:04:26;;;;;;;;;;;3.80;99.90;;;;;;20905890;28;19917;-81
2024/01/20 16:14:27;;;;;;;;;;;2.40;99.90;;;;;;20920276;28;20325;-80
2024/01/20 16:24:27;;;;;;;;;;;2.20;99.90;;;;;;20923469;28;19928;-79
2024/01/20 16:34:28;;;;;;;;;;;2.20;99.90;;;;;;20867601;28;19924;-78
2024/01/20 16:44:28;;;;;;;;;;;0.90;99.90;;;;;;20857340;28;20384;-76
2024/01/20 16:54:29;;;;;;;;;;;0.40;99.90;;;;;;20859278;28;20394;-75
2024/01/20 17:04:30;;;;;;;;;;;-0.20;99.90;;;;;;20856370;28;19925;-75
2024/01/20 17:14:31;;;;;;;;;;;-0.30;99.90;;;;;;20916109;28;20376;-75
2024/01/20 17:24:33;;;;;;;;;;;-0.80;99.90;;;;;;20898864;28;19917;-75
2024/01/20 17:34:33;;;;;;;;;;;-1.00;99.90;;;;;;20865672;28;19921;-74
2024/01/20 17:44:35;;;;;;;;;;;-1.30;99.90;;;;;;20863646;28;19924;-74
2024/01/20 17:54:36;;;;;;;;;;;-1.40;99.90;;;;;;20906975;28;20437;-75
2024/01/20 18:04:37;;;;;;;;;;;-1.40;99.90;;;;;;20873174;28;19960;-77
2024/01/20 18:14:38;;;;;;;;;;;-1.40;99.90;;;;;;20894887;28;20368;-74
2024/01/20 18:24:39;;;;;;;;;;;-1.40;99.90;;;;;;20877302;28;19953;-76
2024/01/20 18:34:40;;;;;;;;;;;-1.80;99.90;;;;;;20908894;28;19956;-76
2024/01/20 18:44:42;;;;;;;;;;;-1.90;99.90;;;;;;20911038;28;19924;-76
2024/01/20 18:54:44;;;;;;;;;;;-2.30;99.90;;;;;;20907894;28;20368;-76
2024/01/20 19:04:44;;;;;;;;;;;-2.00;99.90;;;;;;20888720;28;19923;-76
2024/01/20 19:14:46;;;;;;;;;;;-2.00;99.90;;;;;;20860708;28;19916;-76
2024/01/20 19:24:47;;;;;;;;;;;-2.00;99.90;;;;;;20911769;28;19917;-77
2024/01/20 19:34:47;;;;;;;;;;;-2.00;99.90;;;;;;20907902;28;20019;-77
2024/01/20 19:44:48;;;;;;;;;;;-1.90;99.90;;;;;;20913488;28;19916;-77
2024/01/20 19:54:49;;;;;;;;;;;-2.30;99.90;;;;;;20903907;28;20008;-76
2024/01/20 20:04:50;;;;;;;;;;;-2.70;99.90;;;;;;20901843;28;19971;-78
2024/01/20 20:14:50;;;;;;;;;;;-2.90;99.90;;;;;;20905523;28;19965;-77
2024/01/20 20:24:51;;;;;;;;;;;-3.10;99.90;;;;;;20908302;28;19945;-77
2024/01/20 20:34:56;;;;;;;;;;;-3.30;99.90;;;;;;20902867;28;20368;-76
2024/01/20 20:44:57;;;;;;;;;;;-3.20;99.90;;;;;;20905516;28;20291;-76
2024/01/20 20:54:57;;;;;;;;;;;-3.60;99.90;;;;;;20908084;28;19920;-75
2024/01/20 21:04:58;;;;;;;;;;;-3.40;99.90;;;;;;20898052;28;20017;-74
2024/01/20 21:14:59;;;;;;;;;;;-3.20;99.90;;;;;;20898431;28;20536;-75
2024/01/20 21:24:59;;;;;;;;;;;-3.40;99.90;;;;;;20906177;28;19917;-75
2024/01/20 21:35:00;;;;;;;;;;;-3.90;99.90;;;;;;20861961;28;20456;-74
2024/01/20 21:45:01;;;;;;;;;;;-4.20;99.90;;;;;;20863303;28;19917;-76
2024/01/20 21:55:03;;;;;;;;;;;-4.20;99.90;;;;;;20860963;28;19956;-76
2024/01/20 22:05:05;;;;;;;;;;;-4.10;99.90;;;;;;20870665;28;19923;-75
2024/01/20 22:15:06;;;;;;;;;;;-4.50;99.90;;;;;;20873529;28;20012;-75
2024/01/20 22:25:06;;;;;;;;;;;-4.70;99.90;;;;;;20885315;28;20418;-74
2024/01/20 22:35:07;;;;;;;;;;;-4.50;99.90;;;;;;20867156;28;20391;-75
2024/01/20 22:45:09;;;;;;;;;;;-4.30;99.90;;;;;;20853688;28;20403;-75
2024/01/20 22:55:10;;;;;;;;;;;-4.20;99.90;;;;;;20877806;28;19916;-75
2024/01/20 23:05:10;;;;;;;;;;;-4.50;99.90;;;;;;20860903;28;20006;-74
2024/01/20 23:15:11;;;;;;;;;;;-4.50;99.90;;;;;;20860732;28;20393;-74
2024/01/20 23:25:12;;;;;;;;;;;-4.90;99.90;;;;;;20847600;28;19917;-74
2024/01/20 23:35:12;;;;;;;;;;;-4.80;99.90;;;;;;20879217;28;19917;-76
2024/01/20 23:45:14;;;;;;;;;;;-4.80;99.90;;;;;;20863097;28;19917;-76
2024/01/20 23:55:15;;;;;;;;;;;-4.60;99.90;;;;;;20857564;28;19925;-75
